Time;durP1;ratioP1;P1;durP2;ratioP2;P2;SDS_P1;SDS_P2;PMS_P1;PMS_P2;Temp;Humidity;BMP_temperature;BMP_pressure;BME280_temperature;BME280_humidity;BME280_pressure;Samples;Min_cycle;Max_cycle;Signal;HPM_P1;HPM_P2
2023/07/15 00:00:43;;;;;;;7.53;2.90;;;;;;;;;;4960336;28;98388;-77
2023/07/15 00:03:10;;;;;;;7.28;3.20;;;;;;;;;;4955731;28;98817;-77
2023/07/15 00:05:39;;;;;;;8.75;3.22;;;;;;;;;;4960237;28;99679;-76
2023/07/15 00:08:05;;;;;;;7.70;2.97;;;;;;;;;;4958664;28;98287;-77
2023/07/15 00:10:36;;;;;;;6.43;3.30;;;;;;;;;;4960296;28;98839;-77
2023/07/15 00:13:02;;;;;;;8.95;2.83;;;;;;;;;;4958234;28;101293;-76
2023/07/15 00:15:29;;;;;;;7.05;3.10;;;;;;;;;;4960209;28;97428;-76
2023/07/15 00:17:55;;;;;;;6.85;3.40;;;;;;;;;;4960057;28;98227;-76
2023/07/15 00:20:22;;;;;;;7.60;3.15;;;;;;;;;;4963044;28;98787;-76
2023/07/15 00:22:49;;;;;;;6.68;3.00;;;;;;;;;;4957699;28;98915;-76
2023/07/15 00:25:17;;;;;;;7.22;3.05;;;;;;;;;;4956823;28;98888;-76
2023/07/15 00:27:44;;;;;;;8.13;2.95;;;;;;;;;;4959511;28;98265;-76
2023/07/15 00:30:11;;;;;;;;;;;;;;;;;;4965773;28;100302;-76
2023/07/15 00:32:38;;;;;;;7.65;3.30;;;;;;;;;;4958284;28;122652;-76
2023/07/15 00:35:12;;;;;;;7.63;2.90;;;;;;;;;;4958829;28;98135;-76
2023/07/15 00:37:39;;;;;;;8.07;2.95;;;;;;;;;;4958161;28;98753;-76
2023/07/15 00:40:08;;;;;;;6.35;3.05;;;;;;;;;;4958582;28;100513;-76
2023/07/15 00:42:53;;;;;;;6.55;3.08;;;;;;;;;;4962310;28;98206;-76
2023/07/15 00:45:19;;;;;;;7.05;2.83;;;;;;;;;;4958034;28;101314;-76
2023/07/15 00:47:50;;;;;;;7.25;2.70;;;;;;;;;;4959207;28;98977;-76
2023/07/15 00:50:18;;;;;;;7.53;2.63;;;;;;;;;;4958772;28;99588;-76
2023/07/15 00:52:44;;;;;;;;;;;;;;;;;;4958132;28;99177;-76
2023/07/15 00:55:11;;;;;;;6.75;3.00;;;;;;;;;;4960531;28;109078;-76
2023/07/15 00:57:40;;;;;;;6.97;3.08;;;;;;;;;;4958901;28;98395;-76
2023/07/15 01:00:09;;;;;;;8.75;3.05;;;;;;;;;;4957846;28;99347;-76
2023/07/15 01:02:37;;;;;;;6.18;2.80;;;;;;;;;;4962626;28;98277;-76
2023/07/15 01:05:08;;;;;;;6.40;3.05;;;;;;;;;;4959461;28;97977;-76
2023/07/15 01:07:35;;;;;;;6.63;2.75;;;;;;;;;;4958851;28;98096;-76
2023/07/15 01:10:03;;;;;;;6.72;2.35;;;;;;;;;;4957605;28;100887;-76
2023/07/15 01:12:29;;;;;;;6.45;2.78;;;;;;;;;;4957923;28;99830;-77
2023/07/15 01:14:56;;;;;;;6.15;2.50;;;;;;;;;;4958132;28;98335;-76
2023/07/15 01:17:22;;;;;;;8.05;2.50;;;;;;;;;;4958938;28;99035;-77
2023/07/15 01:19:50;;;;;;;8.60;2.83;;;;;;;;;;4957931;28;101934;-77
2023/07/15 01:22:17;;;;;;;7.57;2.78;;;;;;;;;;4958751;28;98604;-76
2023/07/15 01:24:44;;;;;;;5.70;2.38;;;;;;;;;;4962364;28;99245;-76
2023/07/15 01:27:11;;;;;;;5.57;2.40;;;;;;;;;;4958819;28;98274;-76
2023/07/15 01:29:38;;;;;;;;;;;;;;;;;;4958791;28;100107;-77
2023/07/15 01:32:05;;;;;;;5.85;2.50;;;;;;;;;;4955324;28;107518;-77
2023/07/15 01:34:31;;;;;;;;;;;;;;;;;;4959702;28;98106;-77
2023/07/15 01:36:58;;;;;;;7.78;2.60;;;;;;;;;;4958277;28;110187;-77
2023/07/15 01:39:25;;;;;;;6.95;2.50;;;;;;;;;;4960258;28;99167;-76
2023/07/15 01:41:52;;;;;;;6.00;2.25;;;;;;;;;;4967019;28;98402;-77
2023/07/15 01:44:18;;;;;;;7.05;2.67;;;;;;;;;;4957783;28;98460;-76
2023/07/15 01:46:46;;;;;;;5.32;2.72;;;;;;;;;;4944167;28;99800;-77
2023/07/15 01:49:13;;;;;;;;;;;;;;;;;;4957985;28;99478;-76
2023/07/15 01:51:39;;;;;;;6.85;2.58;;;;;;;;;;4957799;28;115075;-77
2023/07/15 01:54:06;;;;;;;5.50;2.58;;;;;;;;;;4964408;28;97405;-76
2023/07/15 01:56:32;;;;;;;8.80;2.70;;;;;;;;;;4956804;28;100707;-77
2023/07/15 01:58:59;;;;;;;6.72;2.45;;;;;;;;;;4956921;28;101226;-76
2023/07/15 02:01:25;;;;;;;5.10;2.50;;;;;;;;;;4940556;28;99204;-78
2023/07/15 02:03:53;;;;;;;7.07;2.78;;;;;;;;;;4973411;28;101358;-77
2023/07/15 02:06:20;;;;;;;6.28;2.60;;;;;;;;;;4940210;28;101270;-77
2023/07/15 02:08:46;;;;;;;6.63;2.50;;;;;;;;;;4959748;28;101283;-77
2023/07/15 02:11:13;;;;;;;8.20;2.55;;;;;;;;;;4956593;28;99555;-77
2023/07/15 02:13:40;;;;;;;6.20;2.60;;;;;;;;;;4963233;28;98503;-77
2023/07/15 02:16:06;;;;;;;6.85;2.42;;;;;;;;;;4957304;28;100949;-77
2023/07/15 02:18:33;;;;;;;6.07;2.58;;;;;;;;;;4945137;28;98859;-77
2023/07/15 02:20:59;;;;;;;5.53;2.50;;;;;;;;;;4957111;28;98265;-77
2023/07/15 02:23:25;;;;;;;8.95;2.90;;;;;;;;;;4958374;28;99394;-77
2023/07/15 02:25:52;;;;;;;9.93;2.75;;;;;;;;;;4956039;28;102249;-77
2023/07/15 02:28:20;;;;;;;9.13;2.50;;;;;;;;;;4956665;28;98739;-77
2023/07/15 02:30:47;;;;;;;4.75;2.20;;;;;;;;;;4961372;28;98356;-78
2023/07/15 02:33:13;;;;;;;5.38;2.20;;;;;;;;;;4951389;28;98065;-77
2023/07/15 02:35:40;;;;;;;6.18;2.30;;;;;;;;;;4939119;28;101356;-78
2023/07/15 02:38:06;;;;;;;6.38;2.40;;;;;;;;;;4968980;28;98947;-77
2023/07/15 02:40:33;;;;;;;6.10;2.50;;;;;;;;;;4956944;28;99561;-76
2023/07/15 02:43:00;;;;;;;5.88;2.42;;;;;;;;;;4958372;28;98911;-77
2023/07/15 02:45:27;;;;;;;7.25;2.47;;;;;;;;;;4958032;28;98745;-77
2023/07/15 02:47:53;;;;;;;6.10;2.85;;;;;;;;;;4953268;28;98224;-77
2023/07/15 02:50:20;;;;;;;6.88;2.63;;;;;;;;;;4964596;28;98880;-77
2023/07/15 02:52:46;;;;;;;7.00;3.08;;;;;;;;;;4963205;28;98726;-77
2023/07/15 02:55:13;;;;;;;6.55;2.58;;;;;;;;;;4956942;28;99786;-76
2023/07/15 02:57:40;;;;;;;8.07;2.80;;;;;;;;;;4939578;28;99794;-77
2023/07/15 03:00:15;;;;;;;7.35;2.42;;;;;;;;;;4956862;28;98145;-77
2023/07/15 03:02:47;;;;;;;6.28;2.80;;;;;;;;;;4956457;28;98539;-77
2023/07/15 03:05:15;;;;;;;9.23;2.65;;;;;;;;;;4957601;28;98794;-77
2023/07/15 03:07:44;;;;;;;6.63;2.30;;;;;;;;;;4961180;28;97790;-77
2023/07/15 03:10:12;;;;;;;6.97;2.80;;;;;;;;;;4960908;28;98077;-76
2023/07/15 03:12:39;;;;;;;7.18;2.67;;;;;;;;;;4961361;28;99618;-76
2023/07/15 03:15:05;;;;;;;6.90;2.75;;;;;;;;;;4959912;28;98835;-77
2023/07/15 03:17:35;;;;;;;7.38;2.80;;;;;;;;;;4960582;28;99241;-77
2023/07/15 03:20:07;;;;;;;7.70;2.72;;;;;;;;;;4956794;28;98256;-77
2023/07/15 03:22:33;;;;;;;8.88;3.22;;;;;;;;;;4950244;28;100295;-78
2023/07/15 03:25:00;;;;;;;6.47;2.65;;;;;;;;;;4959221;28;101183;-77
2023/07/15 03:27:26;;;;;;;6.22;2.50;;;;;;;;;;4960494;28;98438;-77
2023/07/15 03:29:54;;;;;;;5.78;2.50;;;;;;;;;;4959858;28;99310;-77
2023/07/15 03:32:22;;;;;;;5.93;2.40;;;;;;;;;;4953223;28;100103;-77
2023/07/15 03:34:49;;;;;;;7.40;2.80;;;;;;;;;;4963016;28;98089;-77
2023/07/15 03:37:16;;;;;;;6.30;2.70;;;;;;;;;;4960251;28;99034;-77
2023/07/15 03:39:42;;;;;;;8.23;2.60;;;;;;;;;;4960477;28;98843;-76
2023/07/15 03:42:09;;;;;;;5.88;2.70;;;;;;;;;;4960548;28;99560;-77
2023/07/15 03:44:35;;;;;;;7.40;2.50;;;;;;;;;;4961816;28;98754;-76
2023/07/15 03:47:02;;;;;;;5.80;2.63;;;;;;;;;;4960262;28;98179;-77
2023/07/15 03:49:28;;;;;;;6.93;2.70;;;;;;;;;;4961122;28;99201;-77
2023/07/15 03:51:55;;;;;;;5.68;2.40;;;;;;;;;;4959849;28;98757;-77
2023/07/15 03:54:21;;;;;;;6.50;2.67;;;;;;;;;;4959174;28;98692;-77
2023/07/15 03:56:48;;;;;;;9.15;2.83;;;;;;;;;;4974093;28;99059;-77
2023/07/15 03:59:14;;;;;;;6.82;2.90;;;;;;;;;;4954716;28;98389;-78
2023/07/15 04:01:41;;;;;;;6.35;2.70;;;;;;;;;;4959716;28;98520;-78
2023/07/15 04:04:09;;;;;;;6.80;2.50;;;;;;;;;;4958146;28;100024;-78
2023/07/15 04:06:36;;;;;;;7.20;2.88;;;;;;;;;;4959688;28;98322;-77
2023/07/15 04:09:04;;;;;;;7.30;2.78;;;;;;;;;;4957272;28;99338;-77
2023/07/15 04:11:34;;;;;;;7.40;2.80;;;;;;;;;;4955564;28;101786;-77
2023/07/15 04:14:01;;;;;;;7.13;2.53;;;;;;;;;;4950214;28;98546;-77
2023/07/15 04:16:27;;;;;;;7.10;2.80;;;;;;;;;;4942006;28;98427;-77
2023/07/15 04:18:54;;;;;;;6.90;2.78;;;;;;;;;;4960283;28;101807;-76
2023/07/15 04:21:21;;;;;;;6.18;2.30;;;;;;;;;;4960514;28;99390;-77
2023/07/15 04:23:47;;;;;;;7.57;2.60;;;;;;;;;;4959384;28;98900;-77
2023/07/15 04:26:22;;;;;;;7.50;2.47;;;;;;;;;;4958285;28;98525;-77
2023/07/15 04:28:49;;;;;;;6.25;2.40;;;;;;;;;;4959032;28;99462;-77
2023/07/15 04:31:16;;;;;;;8.70;2.70;;;;;;;;;;4958950;28;99716;-77
2023/07/15 04:33:46;;;;;;;6.63;2.63;;;;;;;;;;4968948;28;98686;-77
2023/07/15 04:36:13;;;;;;;6.57;2.70;;;;;;;;;;4959773;28;99017;-77
2023/07/15 04:38:40;;;;;;;5.90;2.85;;;;;;;;;;4950617;28;101741;-77
2023/07/15 04:41:07;;;;;;;6.32;3.08;;;;;;;;;;4962046;28;98273;-77
2023/07/15 04:43:33;;;;;;;8.10;2.85;;;;;;;;;;4957008;28;101693;-77
2023/07/15 04:46:00;;;;;;;7.47;2.90;;;;;;;;;;4958366;28;97533;-77
2023/07/15 04:48:26;;;;;;;8.68;3.17;;;;;;;;;;4959331;28;98678;-77
2023/07/15 04:50:53;;;;;;;5.85;2.50;;;;;;;;;;4957302;28;100445;-77
2023/07/15 04:53:19;;;;;;;7.93;2.92;;;;;;;;;;4958461;28;99299;-77
2023/07/15 04:55:46;;;;;;;6.15;2.65;;;;;;;;;;4957602;28;102079;-78
2023/07/15 04:58:15;;;;;;;6.35;2.78;;;;;;;;;;4959784;28;99080;-78
2023/07/15 05:00:42;;;;;;;8.20;2.70;;;;;;;;;;4957557;28;98144;-77
2023/07/15 05:03:09;;;;;;;;;;;;;;;;;;4962324;28;98783;-77
2023/07/15 05:05:35;;;;;;;7.05;2.95;;;;;;;;;;4974430;28;116320;-77
2023/07/15 05:08:15;;;;;;;6.93;2.53;;;;;;;;;;4957411;28;98384;-78
2023/07/15 05:10:42;;;;;;;7.80;3.00;;;;;;;;;;4960052;28;99679;-77
2023/07/15 05:13:11;;;;;;;6.22;2.30;;;;;;;;;;4956437;28;98671;-77
2023/07/15 05:15:38;;;;;;;7.85;2.75;;;;;;;;;;4959060;28;98414;-76
2023/07/15 05:18:04;;;;;;;;;;;;;;;;;;4958149;28;99489;-77
2023/07/15 05:20:31;;;;;;;6.03;2.50;;;;;;;;;;4959590;28;112213;-77
2023/07/15 05:22:58;;;;;;;6.32;2.72;;;;;;;;;;4976593;28;100306;-77
2023/07/15 05:25:25;;;;;;;7.28;2.70;;;;;;;;;;4958586;28;98112;-76
2023/07/15 05:27:51;;;;;;;;;;;;;;;;;;4957191;28;101690;-77
2023/07/15 05:30:19;;;;;;;6.00;2.60;;;;;;;;;;4958839;28;99231;-77
2023/07/15 05:32:45;;;;;;;6.05;2.90;;;;;;;;;;4956730;28;98463;-77
2023/07/15 05:35:12;;;;;;;6.85;2.60;;;;;;;;;;4958065;28;98197;-77
2023/07/15 05:37:38;;;;;;;9.70;3.20;;;;;;;;;;4957863;28;98758;-76
2023/07/15 05:40:09;;;;;;;6.13;2.30;;;;;;;;;;4958454;28;98538;-76
2023/07/15 05:42:37;;;;;;;7.15;2.67;;;;;;;;;;4956791;28;99109;-76
2023/07/15 05:45:05;;;;;;;6.65;3.10;;;;;;;;;;4960225;28;101796;-76
2023/07/15 05:47:31;;;;;;;6.28;3.00;;;;;;;;;;4973115;28;101244;-77
2023/07/15 05:49:58;;;;;;;7.50;3.03;;;;;;;;;;4958135;28;99512;-77
2023/07/15 05:52:24;;;;;;;7.85;3.20;;;;;;;;;;4956319;28;98504;-77
2023/07/15 05:54:51;;;;;;;9.13;3.35;;;;;;;;;;4957288;28;98433;-77
2023/07/15 05:57:17;;;;;;;7.55;3.00;;;;;;;;;;4956115;28;101467;-77
2023/07/15 05:59:44;;;;;;;8.40;3.13;;;;;;;;;;4958723;28;97374;-77
2023/07/15 06:02:11;;;;;;;;;;;;;;;;;;4958460;28;98362;-77
2023/07/15 06:04:37;;;;;;;7.57;2.88;;;;;;;;;;4959210;28;105329;-77
2023/07/15 06:07:04;;;;;;;6.90;2.60;;;;;;;;;;4966020;28;98913;-77
2023/07/15 06:09:30;;;;;;;6.32;2.88;;;;;;;;;;4961809;28;98869;-77
2023/07/15 06:11:57;;;;;;;7.55;3.28;;;;;;;;;;4957633;28;98563;-77
2023/07/15 06:14:24;;;;;;;7.82;2.80;;;;;;;;;;4958188;28;98845;-77
2023/07/15 06:16:50;;;;;;;6.75;2.83;;;;;;;;;;4957278;28;98820;-77
2023/07/15 06:19:17;;;;;;;6.93;2.85;;;;;;;;;;4958420;28;98505;-77
2023/07/15 06:21:43;;;;;;;8.57;3.15;;;;;;;;;;4957615;28;98404;-77
2023/07/15 06:24:10;;;;;;;6.63;2.85;;;;;;;;;;4958172;28;98096;-77
2023/07/15 06:26:36;;;;;;;7.72;3.45;;;;;;;;;;4957534;28;98664;-76
2023/07/15 06:29:03;;;;;;;8.20;2.70;;;;;;;;;;4943048;28;100619;-77
2023/07/15 06:31:29;;;;;;;7.15;3.13;;;;;;;;;;4955634;28;99215;-76
2023/07/15 06:33:56;;;;;;;6.45;2.90;;;;;;;;;;4954039;28;99115;-77
2023/07/15 06:36:22;;;;;;;7.32;2.78;;;;;;;;;;4957223;28;99195;-76
2023/07/15 06:38:49;;;;;;;6.05;2.67;;;;;;;;;;4956625;28;98146;-76
2023/07/15 06:41:15;;;;;;;7.22;3.00;;;;;;;;;;4958726;28;98720;-77
2023/07/15 06:43:43;;;;;;;11.18;3.45;;;;;;;;;;4943213;28;99195;-79
2023/07/15 06:46:10;;;;;;;7.15;2.42;;;;;;;;;;4959885;28;98209;-80
2023/07/15 06:48:37;;;;;;;7.75;2.60;;;;;;;;;;4944278;28;100614;-78
2023/07/15 06:51:03;;;;;;;6.00;2.42;;;;;;;;;;4965354;28;98754;-78
2023/07/15 06:53:30;;;;;;;7.72;2.60;;;;;;;;;;4961105;28;98830;-79
2023/07/15 06:55:56;;;;;;;5.78;2.35;;;;;;;;;;4960034;28;99689;-80
2023/07/15 06:58:39;;;;;;;7.63;2.30;;;;;;;;;;4949748;28;98166;-79
2023/07/15 07:01:10;;;;;;;5.43;2.50;;;;;;;;;;4960869;28;98356;-80
2023/07/15 07:03:36;;;;;;;5.57;2.25;;;;;;;;;;4974878;28;102116;-79
2023/07/15 07:06:03;;;;;;;6.15;2.40;;;;;;;;;;4949131;28;98089;-77
2023/07/15 07:08:30;;;;;;;5.80;2.10;;;;;;;;;;4960034;28;98391;-77
2023/07/15 07:10:57;;;;;;;4.97;1.75;;;;;;;;;;4959261;28;99271;-77
2023/07/15 07:13:23;;;;;;;5.75;2.10;;;;;;;;;;4963063;28;97910;-77
2023/07/15 07:15:49;;;;;;;4.53;1.80;;;;;;;;;;4960373;28;98728;-77
2023/07/15 07:18:16;;;;;;;5.93;1.80;;;;;;;;;;4960369;28;98136;-78
2023/07/15 07:20:43;;;;;;;4.07;1.52;;;;;;;;;;4942309;28;101432;-79
2023/07/15 07:23:09;;;;;;;4.63;1.80;;;;;;;;;;4958833;28;98661;-76
2023/07/15 07:25:36;;;;;;;4.65;1.90;;;;;;;;;;4960674;28;98431;-76
2023/07/15 07:28:02;;;;;;;3.70;1.70;;;;;;;;;;4960283;28;99166;-77
2023/07/15 07:30:29;;;;;;;3.22;1.80;;;;;;;;;;4960082;28;99125;-77
2023/07/15 07:32:55;;;;;;;4.82;1.60;;;;;;;;;;4965323;28;98139;-78
2023/07/15 07:35:22;;;;;;;3.53;1.42;;;;;;;;;;4955899;28;98887;-76
2023/07/15 07:37:49;;;;;;;5.55;1.45;;;;;;;;;;4945349;28;97554;-77
2023/07/15 07:40:15;;;;;;;2.85;1.40;;;;;;;;;;4958714;28;98316;-76
2023/07/15 07:42:42;;;;;;;4.28;1.58;;;;;;;;;;4959537;28;99047;-77
2023/07/15 07:45:12;;;;;;;3.90;1.60;;;;;;;;;;4944230;28;98974;-76
2023/07/15 07:47:38;;;;;;;3.50;1.60;;;;;;;;;;4951272;28;99699;-77
2023/07/15 07:50:05;;;;;;;4.20;1.70;;;;;;;;;;4939078;28;101619;-77
2023/07/15 07:52:32;;;;;;;3.72;1.70;;;;;;;;;;4939232;28;98265;-77
2023/07/15 07:54:59;;;;;;;3.42;1.60;;;;;;;;;;4952923;28;98559;-78
2023/07/15 07:57:25;;;;;;;2.97;1.42;;;;;;;;;;4955974;28;98231;-77
2023/07/15 07:59:52;;;;;;;3.25;1.63;;;;;;;;;;4955954;28;98417;-77
2023/07/15 08:02:18;;;;;;;2.70;1.30;;;;;;;;;;4948432;28;98457;-77
2023/07/15 08:04:48;;;;;;;3.50;1.35;;;;;;;;;;4939323;28;98245;-77
2023/07/15 08:07:14;;;;;;;3.33;1.52;;;;;;;;;;4938572;28;98443;-77
2023/07/15 08:09:41;;;;;;;2.75;1.55;;;;;;;;;;4951128;28;99601;-77
2023/07/15 08:12:10;;;;;;;3.25;1.60;;;;;;;;;;4959173;28;98369;-77
2023/07/15 08:14:37;;;;;;;3.65;1.70;;;;;;;;;;4955546;28;98876;-77
2023/07/15 08:17:03;;;;;;;2.75;1.50;;;;;;;;;;4942748;28;99139;-76
2023/07/15 08:19:30;;;;;;;8.15;1.60;;;;;;;;;;4939045;28;101195;-76
2023/07/15 08:21:56;;;;;;;2.58;1.50;;;;;;;;;;4953318;28;98912;-78
2023/07/15 08:24:23;;;;;;;5.75;1.60;;;;;;;;;;4959638;28;99450;-75
2023/07/15 08:26:49;;;;;;;5.10;1.63;;;;;;;;;;4959617;28;98878;-76
2023/07/15 08:29:16;;;;;;;3.58;1.73;;;;;;;;;;4957407;28;99444;-75
2023/07/15 08:31:42;;;;;;;4.13;1.30;;;;;;;;;;4954579;28;98401;-76
2023/07/15 08:34:09;;;;;;;5.80;1.77;;;;;;;;;;4956976;28;99298;-76
2023/07/15 08:36:36;;;;;;;4.07;1.60;;;;;;;;;;4959030;28;98667;-76
2023/07/15 08:39:02;;;;;;;4.03;1.70;;;;;;;;;;4961336;28;98252;-76
2023/07/15 08:41:29;;;;;;;3.53;1.48;;;;;;;;;;4960346;28;98724;-76
2023/07/15 08:43:56;;;;;;;3.15;1.40;;;;;;;;;;4964412;28;99940;-77
2023/07/15 08:46:27;;;;;;;2.88;1.60;;;;;;;;;;4959488;28;98947;-76
2023/07/15 08:48:58;;;;;;;3.10;1.50;;;;;;;;;;4958891;28;99233;-77
2023/07/15 08:51:25;;;;;;;2.63;1.50;;;;;;;;;;4958168;28;97479;-77
2023/07/15 08:53:52;;;;;;;4.10;1.50;;;;;;;;;;4959311;28;98118;-76
2023/07/15 08:56:20;;;;;;;3.72;1.40;;;;;;;;;;4957506;28;98546;-77
2023/07/15 08:58:47;;;;;;;2.30;1.40;;;;;;;;;;4956214;28;98867;-77
2023/07/15 09:01:14;;;;;;;;;;;;;;;;;;4961796;28;100616;-77
2023/07/15 09:03:40;;;;;;;3.05;1.50;;;;;;;;;;4956080;28;98651;-76
2023/07/15 09:06:07;;;;;;;6.50;2.70;;;;;;;;;;4954948;28;100716;-77
2023/07/15 09:08:34;;;;;;;6.63;2.97;;;;;;;;;;4954250;28;99069;-77
2023/07/15 09:11:02;;;;;;;5.43;2.97;;;;;;;;;;4942573;28;98254;-78
2023/07/15 09:13:31;;;;;;;8.77;3.20;;;;;;;;;;4957865;28;99004;-78
2023/07/15 09:15:57;;;;;;;5.78;2.95;;;;;;;;;;4955871;28;101227;-78
2023/07/15 09:18:24;;;;;;;7.35;2.88;;;;;;;;;;4958953;28;98724;-78
2023/07/15 09:21:05;;;;;;;8.10;3.40;;;;;;;;;;4961307;28;98295;-79
2023/07/15 09:23:32;;;;;;;8.02;3.70;;;;;;;;;;4956503;28;100579;-78
2023/07/15 09:26:00;;;;;;;9.32;3.90;;;;;;;;;;4958553;28;99876;-78
2023/07/15 09:28:26;;;;;;;5.70;3.30;;;;;;;;;;4954719;28;98830;-78
2023/07/15 09:30:53;;;;;;;8.07;3.60;;;;;;;;;;4951082;28;99162;-79
2023/07/15 09:33:26;;;;;;;7.50;3.72;;;;;;;;;;4952405;28;99480;-78
2023/07/15 09:35:53;;;;;;;7.72;3.72;;;;;;;;;;4958329;28;99300;-79
2023/07/15 09:38:20;;;;;;;7.32;3.30;;;;;;;;;;4957316;28;99156;-79
2023/07/15 09:40:49;;;;;;;8.52;3.90;;;;;;;;;;4960449;28;98660;-79
2023/07/15 09:43:16;;;;;;;7.53;3.65;;;;;;;;;;4959774;28;99163;-80
2023/07/15 09:45:42;;;;;;;6.07;2.92;;;;;;;;;;4958049;28;100699;-80
2023/07/15 09:48:10;;;;;;;7.75;3.65;;;;;;;;;;4951013;28;99562;-79
2023/07/15 09:50:39;;;;;;;7.10;3.33;;;;;;;;;;4957343;28;98266;-79
2023/07/15 09:53:06;;;;;;;7.15;3.63;;;;;;;;;;4945437;28;99287;-80
2023/07/15 09:55:33;;;;;;;;;;;;;;;;;;4969048;28;101301;-80
2023/07/15 09:58:04;;;;;;;6.60;3.60;;;;;;;;;;4967263;28;110544;-79
2023/07/15 10:00:33;;;;;;;7.10;3.03;;;;;;;;;;4956598;28;100835;-80
2023/07/15 10:03:01;;;;;;;7.63;3.53;;;;;;;;;;4953469;28;98580;-80
2023/07/15 10:05:28;;;;;;;6.50;3.10;;;;;;;;;;4959485;28;97789;-79
2023/07/15 10:07:55;;;;;;;7.43;2.58;;;;;;;;;;4958910;28;99527;-79
2023/07/15 10:10:22;;;;;;;7.10;2.80;;;;;;;;;;4957059;28;98489;-79
2023/07/15 10:12:49;;;;;;;6.68;2.80;;;;;;;;;;4946109;28;99433;-79
2023/07/15 10:15:15;;;;;;;;;;;;;;;;;;4949359;28;99157;-80
2023/07/15 10:17:44;;;;;;;4.10;2.33;;;;;;;;;;4942282;28;115242;-79
2023/07/15 10:20:11;;;;;;;6.63;2.70;;;;;;;;;;4962537;28;98726;-78
2023/07/15 10:22:39;;;;;;;6.80;2.75;;;;;;;;;;4938780;28;101344;-79
2023/07/15 10:25:12;;;;;;;5.47;2.67;;;;;;;;;;4948228;28;98593;-79
2023/07/15 10:27:39;;;;;;;5.35;2.30;;;;;;;;;;4948184;28;99576;-78
2023/07/15 10:30:22;;;;;;;6.60;2.60;;;;;;;;;;4957841;28;97394;-78
2023/07/15 10:32:58;;;;;;;4.75;2.13;;;;;;;;;;4928653;28;100659;-78
2023/07/15 10:35:28;;;;;;;5.13;2.33;;;;;;;;;;4947904;28;98626;-77
2023/07/15 10:37:57;;;;;;;5.63;2.40;;;;;;;;;;4948262;28;98939;-79
2023/07/15 10:40:45;;;;;;;7.25;2.38;;;;;;;;;;4943718;28;99598;-78
2023/07/15 10:43:11;;;;;;;;;;;;;;;;;;4930711;28;99190;-78
2023/07/15 10:45:41;;;;;;;7.95;2.63;;;;;;;;;;4956041;28;98245;-78
2023/07/15 10:48:08;;;;;;;8.35;2.40;;;;;;;;;;4953190;28;100218;-78
2023/07/15 10:50:35;;;;;;;6.07;2.40;;;;;;;;;;4957811;28;98721;-79
2023/07/15 10:53:25;;;;;;;7.72;2.50;;;;;;;;;;4950284;28;98254;-79
2023/07/15 10:56:06;;;;;;;8.15;2.45;;;;;;;;;;4953198;28;98414;-78
2023/07/15 10:58:33;;;;;;;5.88;2.28;;;;;;;;;;4953776;28;98217;-79
2023/07/15 11:01:01;;;;;;;5.22;2.35;;;;;;;;;;4949404;28;98506;-79
2023/07/15 11:03:28;;;;;;;5.53;2.35;;;;;;;;;;4938288;28;99989;-79
2023/07/15 11:05:56;;;;;;;6.20;2.58;;;;;;;;;;4941105;28;98702;-79
2023/07/15 11:08:23;;;;;;;6.88;2.42;;;;;;;;;;4955682;28;98987;-80
2023/07/15 11:10:55;;;;;;;5.80;2.15;;;;;;;;;;4939332;28;101100;-78
2023/07/15 11:13:22;;;;;;;5.47;2.30;;;;;;;;;;4959338;28;98709;-80
2023/07/15 11:15:48;;;;;;;5.15;2.03;;;;;;;;;;4956877;28;98731;-77
2023/07/15 11:18:19;;;;;;;7.15;1.98;;;;;;;;;;4949607;28;98653;-78
2023/07/15 11:20:47;;;;;;;5.75;2.10;;;;;;;;;;4946095;28;98738;-78
2023/07/15 11:23:13;;;;;;;4.47;1.90;;;;;;;;;;4956793;28;98780;-78
2023/07/15 11:25:43;;;;;;;3.05;1.42;;;;;;;;;;4955610;28;100118;-78
2023/07/15 11:28:10;;;;;;;4.00;1.77;;;;;;;;;;4957888;28;99805;-79
2023/07/15 11:30:38;;;;;;;4.05;1.80;;;;;;;;;;4959779;28;99448;-78
2023/07/15 11:33:05;;;;;;;4.40;1.80;;;;;;;;;;4961612;28;98237;-78
2023/07/15 11:35:36;;;;;;;5.25;1.75;;;;;;;;;;4959660;28;98713;-78
2023/07/15 11:38:12;;;;;;;4.05;1.85;;;;;;;;;;4958981;28;98480;-78
2023/07/15 11:40:52;;;;;;;4.75;1.90;;;;;;;;;;4945402;28;98487;-78
2023/07/15 11:43:19;;;;;;;4.25;1.85;;;;;;;;;;4958686;28;98707;-78
2023/07/15 11:45:46;;;;;;;3.58;1.70;;;;;;;;;;4959202;28;97649;-78
2023/07/15 11:48:20;;;;;;;5.63;1.95;;;;;;;;;;4959075;28;98506;-77
2023/07/15 11:50:47;;;;;;;4.63;1.90;;;;;;;;;;4973587;28;98821;-77
2023/07/15 11:53:29;;;;;;;3.78;1.60;;;;;;;;;;4959629;28;98785;-77
2023/07/15 11:55:57;;;;;;;4.07;1.63;;;;;;;;;;4962955;28;99208;-77
2023/07/15 11:58:42;;;;;;;4.45;1.70;;;;;;;;;;4962834;28;98126;-77
2023/07/15 12:01:13;;;;;;;2.97;1.70;;;;;;;;;;4963440;28;99903;-77
2023/07/15 12:03:40;;;;;;;3.13;1.40;;;;;;;;;;4959623;28;98717;-79
2023/07/15 12:06:17;;;;;;;4.28;1.73;;;;;;;;;;4959618;28;98530;-77
2023/07/15 12:08:57;;;;;;;4.90;1.75;;;;;;;;;;4959416;28;98450;-78
2023/07/15 12:11:24;;;;;;;3.17;1.55;;;;;;;;;;4945246;28;98117;-77
2023/07/15 12:13:50;;;;;;;5.22;2.13;;;;;;;;;;4956109;28;98857;-78
2023/07/15 12:16:17;;;;;;;4.82;2.10;;;;;;;;;;4958310;28;101197;-80
2023/07/15 12:18:44;;;;;;;;;;;;;;;;;;4944869;28;101683;-79
2023/07/15 12:21:10;;;;;;;5.72;2.17;;;;;;;;;;4970129;28;128029;-80
2023/07/15 12:23:37;;;;;;;5.22;2.10;;;;;;;;;;4958564;28;99016;-80
2023/07/15 12:26:04;;;;;;;7.78;2.15;;;;;;;;;;4959200;28;98135;-79
2023/07/15 12:28:30;;;;;;;4.80;2.20;;;;;;;;;;4958843;28;98846;-81
2023/07/15 12:30:57;;;;;;;5.22;2.00;;;;;;;;;;4958612;28;99325;-79
2023/07/15 12:33:23;;;;;;;4.72;1.90;;;;;;;;;;4953164;28;98397;-79
2023/07/15 12:35:50;;;;;;;5.05;1.92;;;;;;;;;;4955043;28;101176;-79
2023/07/15 12:38:16;;;;;;;6.55;2.30;;;;;;;;;;4958436;28;99047;-79
2023/07/15 12:40:43;;;;;;;4.72;2.22;;;;;;;;;;4964119;28;98320;-80
2023/07/15 12:43:09;;;;;;;5.75;2.00;;;;;;;;;;4972416;28;101914;-79
2023/07/15 12:45:36;;;;;;;6.38;2.15;;;;;;;;;;4958899;28;98079;-79
2023/07/15 12:48:03;;;;;;;4.63;2.08;;;;;;;;;;4956783;28;101503;-79
2023/07/15 12:50:29;;;;;;;5.22;2.00;;;;;;;;;;4957769;28;100385;-79
2023/07/15 12:52:56;;;;;;;6.15;2.17;;;;;;;;;;4958237;28;98238;-79
2023/07/15 12:55:22;;;;;;;5.57;2.30;;;;;;;;;;4957149;28;101316;-79
2023/07/15 12:57:49;;;;;;;5.57;2.30;;;;;;;;;;4958177;28;99498;-79
2023/07/15 13:00:15;;;;;;;4.60;1.95;;;;;;;;;;4956836;28;97507;-79
2023/07/15 13:02:42;;;;;;;5.47;1.80;;;;;;;;;;4961208;28;98243;-80
2023/07/15 13:05:09;;;;;;;4.88;1.95;;;;;;;;;;4952002;28;98517;-78
2023/07/15 13:07:35;;;;;;;6.20;1.92;;;;;;;;;;4950845;28;99210;-78
2023/07/15 13:10:02;;;;;;;5.35;2.05;;;;;;;;;;4955672;28;99690;-79
2023/07/15 13:12:28;;;;;;;5.07;1.80;;;;;;;;;;4950749;28;98262;-81
2023/07/15 13:14:55;;;;;;;5.05;1.63;;;;;;;;;;4957491;28;98929;-78
2023/07/15 13:17:21;;;;;;;5.03;1.60;;;;;;;;;;4947046;28;98818;-79
2023/07/15 13:19:48;;;;;;;7.15;1.85;;;;;;;;;;4949894;28;98089;-79
2023/07/15 13:22:15;;;;;;;4.57;1.80;;;;;;;;;;4937394;28;100214;-80
2023/07/15 13:24:45;;;;;;;4.05;1.70;;;;;;;;;;4962871;28;99414;-79
2023/07/15 13:27:11;;;;;;;4.63;1.80;;;;;;;;;;4954491;28;98455;-79
2023/07/15 13:29:38;;;;;;;6.90;1.90;;;;;;;;;;4948021;28;98721;-79
2023/07/15 13:32:05;;;;;;;3.88;1.80;;;;;;;;;;4947936;28;98872;-80
2023/07/15 13:34:31;;;;;;;4.47;1.80;;;;;;;;;;4958567;28;99886;-79
2023/07/15 13:36:58;;;;;;;4.00;1.98;;;;;;;;;;4959129;28;101058;-79
2023/07/15 13:39:42;;;;;;;3.50;1.80;;;;;;;;;;4967197;28;98252;-79
2023/07/15 13:42:10;;;;;;;4.30;1.80;;;;;;;;;;4958123;28;98564;-80
2023/07/15 13:44:37;;;;;;;3.78;1.90;;;;;;;;;;4964367;28;101811;-80
2023/07/15 13:47:04;;;;;;;3.92;1.90;;;;;;;;;;4955651;28;98953;-80
2023/07/15 13:49:31;;;;;;;4.32;1.85;;;;;;;;;;4958602;28;97824;-80
2023/07/15 13:51:58;;;;;;;4.05;1.98;;;;;;;;;;4957168;28;98270;-78
2023/07/15 13:54:24;;;;;;;;;;;;;;;;;;4958969;28;98379;-79
2023/07/15 13:56:51;;;;;;;4.82;2.03;;;;;;;;;;4963109;28;109890;-79
2023/07/15 13:59:18;;;;;;;7.80;2.20;;;;;;;;;;4941948;28;98100;-79
2023/07/15 14:01:45;;;;;;;6.65;2.20;;;;;;;;;;4956744;28;98640;-78
2023/07/15 14:04:12;;;;;;;4.28;1.80;;;;;;;;;;4957910;28;99659;-78
2023/07/15 14:06:42;;;;;;;5.55;2.10;;;;;;;;;;4971216;28;100338;-79
2023/07/15 14:09:08;;;;;;;6.03;2.20;;;;;;;;;;4956069;28;99215;-79
2023/07/15 14:11:35;;;;;;;4.50;1.83;;;;;;;;;;4958201;28;98238;-79
2023/07/15 14:14:02;;;;;;;5.25;1.92;;;;;;;;;;4955829;28;98450;-80
2023/07/15 14:16:28;;;;;;;5.30;2.55;;;;;;;;;;4952842;28;101287;-79
2023/07/15 14:18:55;;;;;;;4.13;1.85;;;;;;;;;;4938976;28;98158;-79
2023/07/15 14:21:23;;;;;;;6.70;2.17;;;;;;;;;;4951669;28;98884;-79
2023/07/15 14:23:49;;;;;;;4.85;1.77;;;;;;;;;;4955514;28;98751;-79
2023/07/15 14:26:18;;;;;;;6.20;2.30;;;;;;;;;;4957349;28;98480;-79
2023/07/15 14:28:44;;;;;;;5.38;2.05;;;;;;;;;;4955024;28;98848;-78
2023/07/15 14:31:11;;;;;;;5.65;1.83;;;;;;;;;;4957223;28;98104;-80
2023/07/15 14:33:38;;;;;;;5.35;2.10;;;;;;;;;;4955030;28;101032;-80
2023/07/15 14:36:05;;;;;;;3.60;1.95;;;;;;;;;;4941830;28;100985;-78
2023/07/15 14:38:31;;;;;;;5.47;1.90;;;;;;;;;;4955985;28;97430;-79
2023/07/15 14:40:58;;;;;;;5.45;2.30;;;;;;;;;;4957427;28;98266;-79
2023/07/15 14:43:24;;;;;;;5.28;2.05;;;;;;;;;;4956465;28;99079;-79
2023/07/15 14:45:51;;;;;;;7.40;2.28;;;;;;;;;;4956317;28;99032;-79
2023/07/15 14:48:18;;;;;;;5.88;2.00;;;;;;;;;;4956719;28;99244;-79